createdAt,value
2023-08-07T00:00:24.425Z,4.27
2023-08-07T00:02:52.898Z,2.87
2023-08-07T00:05:21.115Z,3.60
2023-08-07T00:07:49.333Z,3.13
2023-08-07T00:10:17.563Z,4.30
2023-08-07T00:12:46.091Z,4.37
2023-08-07T00:15:15.639Z,4.70
2023-08-07T00:17:43.915Z,3.47
2023-08-07T00:20:12.750Z,3.30
2023-08-07T00:22:41.012Z,3.43
2023-08-07T00:25:09.546Z,2.47
2023-08-07T00:27:37.763Z,3.67
2023-08-07T00:30:06.188Z,3.30
2023-08-07T00:32:38.561Z,3.80
2023-08-07T00:35:09.136Z,3.93
2023-08-07T00:37:37.402Z,3.50
2023-08-07T00:40:05.889Z,3.67
2023-08-07T00:42:34.115Z,3.47
2023-08-07T00:45:03.209Z,3.40
2023-08-07T00:47:31.516Z,3.47
2023-08-07T00:50:01.656Z,4.00
2023-08-07T00:52:29.957Z,3.53
2023-08-07T00:54:58.258Z,3.47
2023-08-07T00:57:26.947Z,4.90
2023-08-07T00:59:55.251Z,3.90
2023-08-07T01:02:23.546Z,3.90
2023-08-07T01:04:52.284Z,3.80
2023-08-07T01:07:22.164Z,3.40
2023-08-07T01:09:50.404Z,4.10
2023-08-07T01:12:21.220Z,4.37
2023-08-07T01:14:54.002Z,3.70
2023-08-07T01:17:23.212Z,3.57
2023-08-07T01:19:52.569Z,3.40
2023-08-07T01:22:22.625Z,2.90
2023-08-07T01:24:51.915Z,4.40
2023-08-07T01:27:27.196Z,4.53
2023-08-07T01:29:58.354Z,3.77
2023-08-07T01:32:28.856Z,3.23
2023-08-07T01:34:57.304Z,4.00
2023-08-07T01:37:28.446Z,2.73
2023-08-07T01:39:57.508Z,3.83
2023-08-07T01:42:25.818Z,4.70
2023-08-07T01:44:54.059Z,4.93
2023-08-07T01:47:22.307Z,2.87
2023-08-07T01:49:50.550Z,4.67
2023-08-07T01:52:18.836Z,4.30
2023-08-07T01:54:48.405Z,3.17
2023-08-07T01:57:16.725Z,3.80
2023-08-07T01:59:45.836Z,3.40
2023-08-07T02:02:14.111Z,3.00
2023-08-07T02:04:42.379Z,3.30
2023-08-07T02:07:10.628Z,4.13
2023-08-07T02:09:38.863Z,3.30
2023-08-07T02:12:13.503Z,3.73
2023-08-07T02:14:41.715Z,3.47
2023-08-07T02:17:10.002Z,3.97
2023-08-07T02:19:38.232Z,3.43
2023-08-07T02:22:06.710Z,3.87
2023-08-07T02:24:34.935Z,3.30
2023-08-07T02:27:03.162Z,3.43
2023-08-07T02:29:35.214Z,3.53
2023-08-07T02:32:04.451Z,3.40
2023-08-07T02:34:33.024Z,3.47
2023-08-07T02:37:01.263Z,3.63
2023-08-07T02:39:29.490Z,3.60
2023-08-07T02:41:57.700Z,3.60
2023-08-07T02:44:26.008Z,2.37
2023-08-07T02:46:55.887Z,2.90
2023-08-07T02:49:25.647Z,3.90
2023-08-07T02:51:53.918Z,3.60
2023-08-07T02:54:22.187Z,3.13
2023-08-07T02:56:51.246Z,3.20
2023-08-07T02:59:20.014Z,3.43
2023-08-07T03:01:48.316Z,2.70
2023-08-07T03:04:18.290Z,4.50
2023-08-07T03:06:46.538Z,3.00
2023-08-07T03:09:14.802Z,3.23
2023-08-07T03:11:43.024Z,2.83
2023-08-07T03:14:11.238Z,3.80
2023-08-07T03:16:39.561Z,2.70
2023-08-07T03:19:07.805Z,3.23
2023-08-07T03:21:37.404Z,2.77
2023-08-07T03:24:05.807Z,3.23
2023-08-07T03:26:34.058Z,5.07
2023-08-07T03:29:02.310Z,4.23
2023-08-07T03:31:30.600Z,3.97
2023-08-07T03:33:59.521Z,5.03
2023-08-07T03:36:27.829Z,5.40
2023-08-07T03:38:57.416Z,4.70
2023-08-07T03:41:25.713Z,4.40
2023-08-07T03:43:53.930Z,3.83
2023-08-07T03:46:22.158Z,4.40
2023-08-07T03:48:50.380Z,3.50
2023-08-07T03:51:19.014Z,4.53
2023-08-07T03:53:47.332Z,3.67
2023-08-07T03:56:17.174Z,3.30
2023-08-07T03:58:45.625Z,3.37
2023-08-07T04:01:14.050Z,3.50
2023-08-07T04:03:43.590Z,3.40
2023-08-07T04:06:16.689Z,3.07
2023-08-07T04:08:48.020Z,3.60
2023-08-07T04:11:18.156Z,3.40
2023-08-07T04:13:46.367Z,4.03
2023-08-07T04:16:14.637Z,3.00
2023-08-07T04:18:43.584Z,3.30
2023-08-07T04:21:11.820Z,6.00
2023-08-07T04:23:41.646Z,2.87
2023-08-07T04:26:11.694Z,5.40
2023-08-07T04:28:41.276Z,2.77
2023-08-07T04:31:09.579Z,2.50
2023-08-07T04:33:38.175Z,4.07
2023-08-07T04:36:06.960Z,3.67
2023-08-07T04:38:35.179Z,3.43
2023-08-07T04:41:04.557Z,3.20
2023-08-07T04:43:33.401Z,3.27
2023-08-07T04:46:03.021Z,3.23
2023-08-07T04:48:32.191Z,3.13
2023-08-07T04:51:00.420Z,3.00
2023-08-07T04:53:28.674Z,3.57
2023-08-07T04:55:56.913Z,3.20
2023-08-07T04:58:25.184Z,3.87
2023-08-07T05:00:57.315Z,3.80
2023-08-07T05:03:27.932Z,4.00
2023-08-07T05:06:00.742Z,2.67
2023-08-07T05:08:29.031Z,2.47
2023-08-07T05:10:57.367Z,2.70
2023-08-07T05:13:25.598Z,3.47
2023-08-07T05:15:53.841Z,3.30
2023-08-07T05:18:22.213Z,3.63
2023-08-07T05:20:51.828Z,3.17
2023-08-07T05:23:20.076Z,3.27
2023-08-07T05:25:49.875Z,3.20
2023-08-07T05:28:18.699Z,2.87
2023-08-07T05:30:46.914Z,3.33
2023-08-07T05:33:16.705Z,3.30
2023-08-07T05:35:45.003Z,3.93
2023-08-07T05:38:14.601Z,3.07
2023-08-07T05:40:42.903Z,3.30
2023-08-07T05:43:12.136Z,3.37
2023-08-07T05:45:40.412Z,3.33
2023-08-07T05:48:10.590Z,2.93
2023-08-07T05:50:38.915Z,2.53
2023-08-07T05:53:07.136Z,3.00
2023-08-07T05:55:36.804Z,3.20
2023-08-07T05:58:05.060Z,3.30
2023-08-07T06:00:33.292Z,2.83
2023-08-07T06:03:01.574Z,2.87
2023-08-07T06:05:29.854Z,3.07
2023-08-07T06:07:58.216Z,3.67
2023-08-07T06:10:26.757Z,2.93
2023-08-07T06:12:56.425Z,2.73
2023-08-07T06:15:24.713Z,3.00
2023-08-07T06:17:53.164Z,2.63
2023-08-07T06:20:21.698Z,3.37
2023-08-07T06:22:49.933Z,2.70
2023-08-07T06:25:20.351Z,3.20
2023-08-07T06:27:48.568Z,3.10
2023-08-07T06:30:18.204Z,3.33
2023-08-07T06:32:46.488Z,3.20
2023-08-07T06:35:14.711Z,3.27
2023-08-07T06:37:42.910Z,2.97
2023-08-07T06:40:12.178Z,2.70
2023-08-07T06:42:40.863Z,3.77
2023-08-07T06:45:09.419Z,3.13
2023-08-07T06:47:39.033Z,3.33
2023-08-07T06:50:07.452Z,3.30
2023-08-07T06:52:35.681Z,4.10
2023-08-07T06:55:06.188Z,2.73
2023-08-07T06:57:34.445Z,4.63
2023-08-07T07:00:02.675Z,3.33
2023-08-07T07:02:30.927Z,3.87
2023-08-07T07:05:01.128Z,3.03
2023-08-07T07:07:29.431Z,3.13
2023-08-07T07:09:58.972Z,4.23
2023-08-07T07:12:27.223Z,3.03
2023-08-07T07:14:55.448Z,3.17
2023-08-07T07:17:24.046Z,3.93
2023-08-07T07:19:52.327Z,2.77
2023-08-07T07:22:21.907Z,3.07
2023-08-07T07:24:50.123Z,3.47
2023-08-07T07:27:18.740Z,3.00
2023-08-07T07:29:47.793Z,3.60
2023-08-07T07:32:16.158Z,3.17
2023-08-07T07:34:44.443Z,3.80
2023-08-07T07:37:15.180Z,4.20
2023-08-07T07:39:44.779Z,3.00
2023-08-07T07:42:13.040Z,3.10
2023-08-07T07:44:41.874Z,3.63
2023-08-07T07:47:13.437Z,4.40
2023-08-07T07:49:42.616Z,3.60
2023-08-07T07:52:10.837Z,4.00
2023-08-07T07:54:39.086Z,3.90
2023-08-07T07:57:09.180Z,4.27
2023-08-07T07:59:38.024Z,3.80
2023-08-07T08:02:06.462Z,3.57
2023-08-07T08:04:36.427Z,2.77
2023-08-07T08:07:04.899Z,3.00
2023-08-07T08:09:33.132Z,3.37
2023-08-07T08:12:01.374Z,3.17
2023-08-07T08:14:40.075Z,3.70
2023-08-07T08:17:15.278Z,4.17
2023-08-07T08:19:50.966Z,4.03
2023-08-07T08:22:19.976Z,3.10
2023-08-07T08:24:48.758Z,2.93
2023-08-07T08:27:18.309Z,3.13
2023-08-07T08:29:47.945Z,3.87
2023-08-07T08:32:18.457Z,2.70
2023-08-07T08:34:46.917Z,3.13
2023-08-07T08:37:15.151Z,2.80
2023-08-07T08:39:43.438Z,2.97
2023-08-07T08:42:13.838Z,3.07
2023-08-07T08:44:42.660Z,2.40
2023-08-07T08:47:13.286Z,3.60
2023-08-07T08:49:44.870Z,2.80
2023-08-07T08:52:13.160Z,3.23
2023-08-07T08:54:41.432Z,4.77
2023-08-07T08:57:09.843Z,3.07
2023-08-07T08:59:38.609Z,4.07
2023-08-07T09:02:07.383Z,3.43
2023-08-07T09:04:37.041Z,4.40
2023-08-07T09:07:05.454Z,3.10
2023-08-07T09:09:33.894Z,3.03
2023-08-07T09:12:03.056Z,2.80
2023-08-07T09:14:34.558Z,3.27
2023-08-07T09:17:03.734Z,2.70
2023-08-07T09:19:32.174Z,2.70
2023-08-07T09:22:01.788Z,3.07
2023-08-07T09:24:30.059Z,2.47
2023-08-07T09:26:59.722Z,3.73
2023-08-07T09:29:29.397Z,3.37
2023-08-07T09:31:57.761Z,3.57
2023-08-07T09:34:26.092Z,2.67
2023-08-07T09:36:55.024Z,2.53
2023-08-07T09:39:28.583Z,3.40
2023-08-07T09:41:58.180Z,2.10
2023-08-07T09:44:26.490Z,3.13
2023-08-07T09:46:55.160Z,3.00
2023-08-07T09:49:24.351Z,4.37
2023-08-07T09:51:52.573Z,3.30
2023-08-07T09:54:20.798Z,3.20
2023-08-07T09:56:51.031Z,3.40
2023-08-07T09:59:19.447Z,3.37
2023-08-07T10:01:47.805Z,2.60
2023-08-07T10:04:17.045Z,2.23
2023-08-07T10:06:46.515Z,2.60
2023-08-07T10:09:14.862Z,2.43
2023-08-07T10:11:43.958Z,4.40
2023-08-07T10:14:14.841Z,3.70
2023-08-07T10:16:43.140Z,2.27
2023-08-07T10:19:12.346Z,2.30
2023-08-07T10:21:42.204Z,2.57
2023-08-07T10:24:11.297Z,3.10
2023-08-07T10:26:42.555Z,2.40
2023-08-07T10:29:13.147Z,3.50
2023-08-07T10:31:44.014Z,3.30
2023-08-07T10:34:12.294Z,3.10
2023-08-07T10:36:41.492Z,3.40
2023-08-07T10:39:10.419Z,3.27
2023-08-07T10:41:42.204Z,3.40
2023-08-07T10:44:20.193Z,3.10
2023-08-07T10:46:53.393Z,3.20
2023-08-07T10:49:34.934Z,2.30
2023-08-07T10:52:04.907Z,1.57
2023-08-07T10:54:33.195Z,3.60
2023-08-07T10:57:02.430Z,3.40
2023-08-07T10:59:33.064Z,3.20
2023-08-07T11:02:02.714Z,4.03
2023-08-07T11:04:31.266Z,2.70
2023-08-07T11:06:59.642Z,2.90
2023-08-07T11:09:27.882Z,2.97
2023-08-07T11:11:56.101Z,3.43
2023-08-07T11:14:24.364Z,2.23
2023-08-07T11:16:52.603Z,2.33
2023-08-07T11:19:22.354Z,1.47
2023-08-07T11:21:51.808Z,2.83
2023-08-07T11:24:22.541Z,2.57
2023-08-07T11:26:51.988Z,3.37
2023-08-07T11:29:20.428Z,2.80
2023-08-07T11:31:48.711Z,2.73
2023-08-07T11:34:18.182Z,4.40
2023-08-07T11:36:48.037Z,3.90
2023-08-07T11:39:17.977Z,2.90
2023-08-07T11:41:46.724Z,3.30
2023-08-07T11:44:17.925Z,3.87
2023-08-07T11:46:46.166Z,2.70
2023-08-07T11:49:15.108Z,2.80
2023-08-07T11:51:43.546Z,3.00
2023-08-07T11:54:17.368Z,3.83
2023-08-07T11:56:45.602Z,3.73
2023-08-07T11:59:13.839Z,4.13
2023-08-07T12:01:42.829Z,2.80
2023-08-07T12:04:12.030Z,2.77
2023-08-07T12:06:41.331Z,2.63
2023-08-07T12:09:13.725Z,2.60
2023-08-07T12:11:43.684Z,2.60
2023-08-07T12:14:16.546Z,2.33
2023-08-07T12:16:47.308Z,2.23
2023-08-07T12:19:16.046Z,3.20
2023-08-07T12:21:44.575Z,2.57
2023-08-07T12:24:13.040Z,3.30
2023-08-07T12:26:42.717Z,2.53
2023-08-07T12:29:11.062Z,2.67
2023-08-07T12:31:40.293Z,2.40
2023-08-07T12:36:40.762Z,2.90
2023-08-07T12:39:09.040Z,2.87
2023-08-07T12:44:09.815Z,2.30
2023-08-07T12:46:40.177Z,2.87
2023-08-07T12:49:11.324Z,2.30
2023-08-07T12:51:39.599Z,2.37
2023-08-07T12:54:07.814Z,1.83
2023-08-07T12:56:37.087Z,2.13
2023-08-07T12:59:05.340Z,2.20
2023-08-07T13:01:35.070Z,2.60
2023-08-07T13:04:06.021Z,2.80
2023-08-07T13:06:34.404Z,2.90
2023-08-07T13:09:02.773Z,2.73
2023-08-07T13:11:31.003Z,1.90
2023-08-07T13:13:59.261Z,3.00
2023-08-07T13:16:27.500Z,2.87
2023-08-07T13:18:57.130Z,2.67
2023-08-07T13:21:25.435Z,2.30
2023-08-07T13:23:54.704Z,2.50
2023-08-07T13:26:22.958Z,2.37
2023-08-07T13:28:51.408Z,1.90
2023-08-07T13:31:19.706Z,2.33
2023-08-07T13:33:48.092Z,2.97
2023-08-07T13:36:18.161Z,2.37
2023-08-07T13:38:47.727Z,2.20
2023-08-07T13:41:17.058Z,2.17
2023-08-07T13:43:45.308Z,2.80
2023-08-07T13:46:13.881Z,2.07
2023-08-07T13:48:42.490Z,3.00
2023-08-07T13:51:10.744Z,2.03
2023-08-07T13:53:40.381Z,2.10
2023-08-07T13:56:10.004Z,2.23
2023-08-07T13:58:38.236Z,2.17
2023-08-07T14:01:06.857Z,2.13
2023-08-07T14:03:35.395Z,2.27
2023-08-07T14:06:03.671Z,1.63
2023-08-07T14:08:33.860Z,1.70
2023-08-07T14:11:03.830Z,3.00
2023-08-07T14:13:32.075Z,1.83
2023-08-07T14:16:00.349Z,1.80
2023-08-07T14:18:28.983Z,2.20
2023-08-07T14:21:02.748Z,2.27
2023-08-07T14:23:33.907Z,1.83
2023-08-07T14:26:03.906Z,2.03
2023-08-07T14:28:32.149Z,1.90
2023-08-07T14:31:01.723Z,1.90
2023-08-07T14:33:30.972Z,2.13
2023-08-07T14:35:59.222Z,2.07
2023-08-07T14:38:27.617Z,1.80
2023-08-07T14:40:55.855Z,1.93
2023-08-07T14:43:25.542Z,2.57
2023-08-07T14:45:55.956Z,1.87
2023-08-07T14:48:24.591Z,2.03
2023-08-07T14:50:53.062Z,1.60
2023-08-07T14:53:21.397Z,1.63
2023-08-07T14:55:49.753Z,1.97
2023-08-07T14:58:18.003Z,1.83
2023-08-07T15:00:47.665Z,2.30
2023-08-07T15:03:15.882Z,1.93
2023-08-07T15:05:44.145Z,1.60
2023-08-07T15:08:12.465Z,1.90
2023-08-07T15:10:42.416Z,1.80
2023-08-07T15:13:10.657Z,1.77
2023-08-07T15:15:38.871Z,2.03
2023-08-07T15:18:08.557Z,2.50
2023-08-07T15:20:37.188Z,1.97
2023-08-07T15:23:05.711Z,2.23
2023-08-07T15:25:33.961Z,1.43
2023-08-07T15:28:04.904Z,1.97
2023-08-07T15:30:33.146Z,1.53
2023-08-07T15:33:01.437Z,1.90
2023-08-07T15:35:33.265Z,1.97
2023-08-07T15:38:02.180Z,1.53
2023-08-07T15:40:30.436Z,1.83
2023-08-07T15:42:58.683Z,1.60
2023-08-07T15:45:26.921Z,1.90
2023-08-07T15:47:55.369Z,1.87
2023-08-07T15:50:23.713Z,2.10
2023-08-07T15:52:53.341Z,1.73
2023-08-07T15:55:21.600Z,1.67
2023-08-07T15:57:49.846Z,1.83
2023-08-07T16:00:18.315Z,2.27
2023-08-07T16:02:46.622Z,2.73
2023-08-07T16:05:14.898Z,2.37
2023-08-07T16:07:43.227Z,2.03
2023-08-07T16:10:12.972Z,1.83
2023-08-07T16:12:41.704Z,1.70
2023-08-07T16:15:10.780Z,1.93
2023-08-07T16:17:39.145Z,2.13
2023-08-07T16:20:07.910Z,2.17
2023-08-07T16:22:36.308Z,1.70
2023-08-07T16:25:04.926Z,1.73
2023-08-07T16:27:34.926Z,1.83
2023-08-07T16:30:05.266Z,2.20
2023-08-07T16:32:33.636Z,2.20
2023-08-07T16:35:02.281Z,1.87
2023-08-07T16:37:31.053Z,2.07
2023-08-07T16:39:59.357Z,2.00
2023-08-07T16:42:27.723Z,2.00
2023-08-07T16:44:57.375Z,1.80
2023-08-07T16:47:25.695Z,2.57
2023-08-07T16:49:53.969Z,2.23
2023-08-07T16:52:22.220Z,1.90
2023-08-07T16:54:54.160Z,1.97
2023-08-07T16:57:23.867Z,2.07
2023-08-07T16:59:52.141Z,2.13
2023-08-07T17:02:22.582Z,1.33
2023-08-07T17:04:50.881Z,1.90
2023-08-07T17:07:19.117Z,2.10
2023-08-07T17:09:47.453Z,1.97
2023-08-07T17:12:15.724Z,2.03
2023-08-07T17:14:43.978Z,2.07
2023-08-07T17:17:12.221Z,2.00
2023-08-07T17:19:41.825Z,1.80
2023-08-07T17:22:10.340Z,1.70
2023-08-07T17:24:38.621Z,2.00
2023-08-07T17:27:07.535Z,1.80
2023-08-07T17:29:35.801Z,1.27
2023-08-07T17:32:04.052Z,1.50
2023-08-07T17:34:32.307Z,1.70
2023-08-07T17:37:01.947Z,1.87
2023-08-07T17:39:30.177Z,1.73
2023-08-07T17:41:58.425Z,1.87
2023-08-07T17:44:26.646Z,1.43
2023-08-07T17:46:54.964Z,1.53
2023-08-07T17:49:23.237Z,1.90
2023-08-07T17:51:51.445Z,1.73
2023-08-07T17:54:21.070Z,1.80
2023-08-07T17:56:51.088Z,1.70
2023-08-07T17:59:19.321Z,1.83
2023-08-07T18:01:47.610Z,1.33
2023-08-07T18:04:15.953Z,1.70
2023-08-07T18:06:44.239Z,1.40
2023-08-07T18:09:13.092Z,1.97
2023-08-07T18:11:43.787Z,1.63
2023-08-07T18:14:12.064Z,1.50
2023-08-07T18:16:40.326Z,1.67
2023-08-07T18:19:08.659Z,1.47
2023-08-07T18:21:36.872Z,1.47
2023-08-07T18:24:05.247Z,1.57
2023-08-07T18:26:33.496Z,1.50
2023-08-07T18:29:03.110Z,1.50
2023-08-07T18:31:32.779Z,1.27
2023-08-07T18:34:01.423Z,1.40
2023-08-07T18:36:29.862Z,1.30
2023-08-07T18:38:58.103Z,1.70
2023-08-07T18:41:26.335Z,1.98
2023-08-07T18:43:54.564Z,1.63
2023-08-07T18:46:24.211Z,1.30
2023-08-07T18:48:52.655Z,1.47
2023-08-07T18:51:21.249Z,1.53
2023-08-07T18:53:49.645Z,1.80
2023-08-07T18:56:17.872Z,1.57
2023-08-07T18:58:46.129Z,1.90
2023-08-07T19:01:14.359Z,1.43
2023-08-07T19:03:44.206Z,1.50
2023-08-07T19:06:12.568Z,1.80
2023-08-07T19:08:41.024Z,1.50
2023-08-07T19:11:09.255Z,1.53
2023-08-07T19:13:38.362Z,1.70
2023-08-07T19:16:07.315Z,1.90
2023-08-07T19:18:35.684Z,1.60
2023-08-07T19:21:05.303Z,1.50
2023-08-07T19:23:33.699Z,1.73
2023-08-07T19:26:03.118Z,1.47
2023-08-07T19:28:31.347Z,1.40
2023-08-07T19:31:05.668Z,1.70
2023-08-07T19:33:35.168Z,1.63
2023-08-07T19:36:04.813Z,1.57
2023-08-07T19:38:33.059Z,1.60
2023-08-07T19:41:01.309Z,1.33
2023-08-07T19:43:29.699Z,1.43
2023-08-07T19:45:58.728Z,1.43
2023-08-07T19:48:27.020Z,1.60
2023-08-07T19:50:55.549Z,1.33
2023-08-07T19:53:25.297Z,2.00
2023-08-07T19:55:55.557Z,1.40
2023-08-07T19:58:23.976Z,2.00
2023-08-07T20:00:52.220Z,1.67
2023-08-07T20:03:31.904Z,1.67
2023-08-07T20:06:00.212Z,1.47
2023-08-07T20:08:29.838Z,1.23
2023-08-07T20:10:59.469Z,1.67
2023-08-07T20:13:27.761Z,1.30
2023-08-07T20:16:05.594Z,1.90
2023-08-07T20:18:33.952Z,2.03
2023-08-07T20:21:02.277Z,1.70
2023-08-07T20:23:33.038Z,1.67
2023-08-07T20:26:01.294Z,1.80
2023-08-07T20:28:29.596Z,1.50
2023-08-07T20:30:58.198Z,1.30
2023-08-07T20:33:27.727Z,1.77
2023-08-07T20:35:57.059Z,1.77
2023-08-07T20:38:25.305Z,1.40
2023-08-07T20:40:54.901Z,1.60
2023-08-07T20:43:25.420Z,1.63
2023-08-07T20:45:53.720Z,1.83
2023-08-07T20:48:22.142Z,2.00
2023-08-07T20:50:50.486Z,2.00
2023-08-07T20:53:18.869Z,1.90
2023-08-07T20:55:47.150Z,1.90
2023-08-07T20:58:16.740Z,1.90
2023-08-07T21:00:45.040Z,1.60
2023-08-07T21:03:13.304Z,2.10
2023-08-07T21:05:41.549Z,1.77
2023-08-07T21:08:09.790Z,1.60
2023-08-07T21:10:38.010Z,2.57
2023-08-07T21:13:06.438Z,1.70
2023-08-07T21:15:36.087Z,1.60
2023-08-07T21:18:04.397Z,2.03
2023-08-07T21:20:35.696Z,2.10
2023-08-07T21:23:04.984Z,2.40
2023-08-07T21:25:33.290Z,2.20
2023-08-07T21:28:01.535Z,2.60
2023-08-07T21:30:29.894Z,2.43
2023-08-07T21:32:59.508Z,2.20
2023-08-07T21:35:27.897Z,2.33
2023-08-07T21:37:56.263Z,2.07
2023-08-07T21:40:24.727Z,2.40
2023-08-07T21:42:53.019Z,2.40
2023-08-07T21:45:21.263Z,3.13
2023-08-07T21:47:49.540Z,2.70
2023-08-07T21:50:19.294Z,2.90
2023-08-07T21:52:47.517Z,2.70
2023-08-07T21:55:18.960Z,3.00
2023-08-07T21:57:47.429Z,2.83
2023-08-07T22:00:16.068Z,3.03
2023-08-07T22:02:45.115Z,2.47
2023-08-07T22:05:13.563Z,2.60
2023-08-07T22:07:44.299Z,3.50
2023-08-07T22:10:12.786Z,3.30
2023-08-07T22:12:41.073Z,4.17
2023-08-07T22:15:10.145Z,3.37
2023-08-07T22:17:38.866Z,3.40
2023-08-07T22:20:08.253Z,3.90
2023-08-07T22:22:38.340Z,3.20
2023-08-07T22:25:08.553Z,3.60
2023-08-07T22:27:36.915Z,3.93
2023-08-07T22:30:06.390Z,3.40
2023-08-07T22:32:34.737Z,3.40
2023-08-07T22:35:03.203Z,3.47
2023-08-07T22:37:31.485Z,3.47
2023-08-07T22:39:59.749Z,3.23
2023-08-07T22:42:29.597Z,3.80
2023-08-07T22:44:57.862Z,2.80
2023-08-07T22:47:26.169Z,2.97
2023-08-07T22:49:55.174Z,3.07
2023-08-07T22:52:23.407Z,3.33
2023-08-07T22:54:51.647Z,3.43
2023-08-07T22:57:19.879Z,2.37
2023-08-07T22:59:49.540Z,3.40
2023-08-07T23:02:17.801Z,2.93
2023-08-07T23:04:46.053Z,3.17
2023-08-07T23:07:14.313Z,3.33
2023-08-07T23:09:42.548Z,3.40
2023-08-07T23:12:11.036Z,3.40
2023-08-07T23:14:39.260Z,3.10
2023-08-07T23:17:09.171Z,3.17
2023-08-07T23:19:37.465Z,3.67
2023-08-07T23:22:06.065Z,3.10
2023-08-07T23:24:34.276Z,3.30
2023-08-07T23:27:02.578Z,3.30
2023-08-07T23:29:30.872Z,4.10
2023-08-07T23:31:59.412Z,3.37
2023-08-07T23:34:29.329Z,3.20
2023-08-07T23:36:57.600Z,3.57
2023-08-07T23:39:25.863Z,3.50
2023-08-07T23:41:54.164Z,3.27
2023-08-07T23:44:22.461Z,2.40
2023-08-07T23:46:50.711Z,3.60
2023-08-07T23:49:18.984Z,3.40
2023-08-07T23:51:48.573Z,3.77
2023-08-07T23:54:16.838Z,3.00
2023-08-07T23:56:45.074Z,3.17
2023-08-07T23:59:13.302Z,2.97
